Time;durP1;ratioP1;P1;durP2;ratioP2;P2;SDS_P1;SDS_P2;PMS_P1;PMS_P2;Temp;Humidity;BMP_temperature;BMP_pressure;BME280_temperature;BME280_humidity;BME280_pressure;Samples;Min_cycle;Max_cycle;Signal;HPM_P1;HPM_P2
2023/07/06 00:01:27;;;;;;;10.03;7.12;;;;;;;22.51;67.87;100302.59;1744097;82;21052;-71
2023/07/06 00:03:56;;;;;;;11.60;7.47;;;;;;;22.50;68.03;100304.55;1744053;82;21044;-71
2023/07/06 00:06:24;;;;;;;11.65;7.25;;;;;;;22.50;68.27;100298.13;1743979;82;21077;-72
2023/07/06 00:08:53;;;;;;;10.58;7.42;;;;;;;22.46;68.41;100303.44;1744094;82;21065;-70
2023/07/06 00:11:22;;;;;;;11.65;7.17;;;;;;;22.44;68.55;100300.92;1743876;82;21052;-72
2023/07/06 00:13:51;;;;;;;10.90;7.87;;;;;;;22.44;68.61;100298.13;1744143;82;21048;-72
2023/07/06 00:16:21;;;;;;;11.05;7.80;;;;;;;22.41;68.73;100306.23;1744043;82;21020;-71
2023/07/06 00:18:50;;;;;;;10.75;7.95;;;;;;;22.38;68.96;100294.22;1723585;82;21489;-70
2023/07/06 00:21:18;;;;;;;16.10;9.10;;;;;;;22.33;69.11;100297.84;1743936;82;21022;-71
2023/07/06 00:23:47;;;;;;;14.35;8.48;;;;;;;22.29;69.34;100293.09;1743868;82;21033;-71
2023/07/06 00:26:20;;;;;;;28.30;13.22;;;;;;;22.24;69.50;100292.53;1744194;82;21028;-71
2023/07/06 00:28:51;;;;;;;27.20;12.82;;;;;;;22.20;69.71;100296.16;1744072;82;21053;-71
2023/07/06 00:31:21;;;;;;;21.37;11.18;;;;;;;22.18;69.89;100296.44;1744089;82;21024;-71
2023/07/06 00:33:52;;;;;;;23.12;12.00;;;;;;;22.20;69.92;100301.19;1744058;82;21044;-72
2023/07/06 00:36:20;;;;;;;19.30;10.48;;;;;;;22.20;69.96;100299.78;1744102;82;21017;-70
2023/07/06 00:38:49;;;;;;;17.67;9.63;;;;;;;22.17;70.04;100298.95;1744078;82;21025;-71
2023/07/06 00:41:18;;;;;;;20.15;10.50;;;;;;;22.12;70.19;100291.95;1743898;82;21679;-72
2023/07/06 00:43:54;;;;;;;15.90;9.00;;;;;;;22.10;70.50;100299.18;1744047;82;21068;-70
2023/07/06 00:46:26;;;;;;;15.38;9.55;;;;;;;22.11;70.71;100302.28;1744066;82;21500;-70
2023/07/06 00:48:56;;;;;;;21.02;10.15;;;;;;;22.12;70.70;100308.14;1744078;82;21057;-71
2023/07/06 00:51:33;;;;;;;25.90;10.75;;;;;;;22.12;70.80;100305.91;1743982;82;21048;-71
2023/07/06 00:54:09;;;;;;;19.32;10.38;;;;;;;22.13;70.89;100298.66;1744131;82;21107;-71
2023/07/06 00:56:42;;;;;;;20.17;10.18;;;;;;;22.11;71.02;100296.70;1744048;82;21109;-71
2023/07/06 00:59:15;;;;;;;17.35;9.30;;;;;;;22.09;71.16;100299.45;1744080;82;21060;-70
2023/07/06 01:01:45;;;;;;;20.55;10.30;;;;;;;22.09;71.25;100296.11;1743857;82;21500;-70
2023/07/06 01:04:16;;;;;;;19.48;9.98;;;;;;;22.10;71.34;100293.59;1743845;82;21076;-71
2023/07/06 01:06:50;;;;;;;17.75;9.53;;;;;;;22.15;71.32;100296.98;1744192;82;21029;-70
2023/07/06 01:09:18;;;;;;;14.00;8.98;;;;;;;22.16;71.39;100293.08;1744062;82;21056;-71
2023/07/06 01:11:49;;;;;;;16.15;9.13;;;;;;;22.13;71.50;100288.05;1744235;82;21033;-70
2023/07/06 01:14:18;;;;;;;13.65;9.20;;;;;;;22.12;71.64;100296.98;1744081;82;21049;-71
2023/07/06 01:17:04;;;;;;;14.63;9.18;;;;;;;22.12;71.68;100290.01;1743867;82;21064;-73
2023/07/06 01:19:48;;;;;;;18.17;9.33;;;;;;;22.14;71.77;100298.10;1743847;82;21096;-72
2023/07/06 01:22:58;;;;;;;13.25;8.83;;;;;;;22.09;71.96;100295.27;1743931;82;21056;-69
2023/07/06 01:25:51;;;;;;;12.73;8.45;;;;;;;22.09;72.15;100293.88;1744151;82;21393;-70
2023/07/06 01:28:45;;;;;;;12.10;8.35;;;;;;;22.07;72.32;100295.55;1744079;82;21056;-70
2023/07/06 01:31:36;;;;;;;12.88;8.50;;;;;;;22.07;72.41;100303.08;1744201;82;21445;-70
2023/07/06 01:34:42;;;;;;;11.78;8.10;;;;;;;22.05;72.58;100295.55;1744019;82;21068;-70
2023/07/06 01:37:23;;;;;;;16.55;9.18;;;;;;;22.04;72.77;100296.66;1743798;82;21033;-72
2023/07/06 01:39:53;;;;;;;15.80;8.60;;;;;;;22.02;72.95;100298.30;1744078;82;21049;-71
2023/07/06 01:42:30;;;;;;;10.65;8.40;;;;;;;22.01;73.07;100292.99;1744088;82;20997;-69
2023/07/06 01:45:10;;;;;;;11.28;8.30;;;;;;;22.00;73.26;100289.92;1743721;82;21044;-70
2023/07/06 01:47:43;;;;;;;13.25;8.48;;;;;;;21.97;73.35;100291.87;1743931;82;21056;-70
2023/07/06 01:50:14;;;;;;;11.45;8.58;;;;;;;21.91;73.59;100287.39;1743979;82;21009;-71
2023/07/06 01:52:51;;;;;;;12.70;8.23;;;;;;;21.83;73.92;100290.16;1743923;82;21088;-71
2023/07/06 01:55:31;;;;;;;13.60;8.80;;;;;;;21.77;74.18;100282.34;1743922;82;21547;-70
2023/07/06 01:58:09;;;;;;;15.18;8.28;;;;;;;21.72;74.35;100290.69;1743874;82;21115;-70
2023/07/06 02:00:42;;;;;;;12.63;8.30;;;;;;;21.71;74.61;100286.22;1743650;82;21037;-70
2023/07/06 02:03:13;;;;;;;12.73;8.43;;;;;;;21.70;74.68;100293.47;1743878;82;21029;-72
2023/07/06 02:05:42;;;;;;;11.12;8.20;;;;;;;21.64;74.92;100293.17;1744119;82;21425;-72
2023/07/06 02:08:11;;;;;;;13.25;8.45;;;;;;;21.64;75.22;100288.43;1744142;82;21048;-71
2023/07/06 02:10:40;;;;;;;15.08;10.40;;;;;;;21.66;75.27;100292.34;1743854;82;20997;-71
2023/07/06 02:13:08;;;;;;;10.88;8.73;;;;;;;21.63;75.42;100292.33;1743777;82;21054;-71
2023/07/06 02:15:37;;;;;;;16.30;8.90;;;;;;;21.60;75.55;100282.28;1744033;82;21045;-69
2023/07/06 02:18:06;;;;;;;14.23;9.28;;;;;;;21.58;75.84;100283.11;1743711;82;21476;-71
2023/07/06 02:20:35;;;;;;;11.95;8.55;;;;;;;21.60;76.05;100286.47;1744038;82;21100;-69
2023/07/06 02:23:07;;;;;;;10.90;8.15;;;;;;;21.63;76.09;100285.91;1745960;82;21600;-71
2023/07/06 02:25:39;;;;;;;12.58;9.18;;;;;;;21.64;76.10;100285.64;1757357;82;21040;-70
2023/07/06 02:28:08;;;;;;;12.55;9.05;;;;;;;21.66;76.16;100286.20;1757233;81;21479;-71
2023/07/06 02:30:37;;;;;;;15.00;8.48;;;;;;;21.66;76.23;100282.02;1757100;82;20997;-69
2023/07/06 02:33:09;;;;;;;11.30;8.58;;;;;;;21.67;76.18;100278.13;1757316;82;21087;-70
2023/07/06 02:35:41;;;;;;;14.87;9.40;;;;;;;21.71;76.18;100289.56;1757125;82;21024;-71
2023/07/06 02:38:10;;;;;;;12.50;8.70;;;;;;;21.76;76.08;100290.98;1729714;82;21033;-71
2023/07/06 02:40:40;;;;;;;12.30;8.93;;;;;;;21.80;75.96;100276.77;1757178;82;21495;-72
2023/07/06 02:43:10;;;;;;;11.55;8.38;;;;;;;21.79;75.98;100275.92;1757452;82;21024;-71
2023/07/06 02:45:39;;;;;;;13.28;8.90;;;;;;;21.86;75.92;100276.22;1757424;82;21012;-71
2023/07/06 02:48:08;;;;;;;14.55;9.05;;;;;;;21.92;75.71;100271.77;1757433;81;21045;-71
2023/07/06 02:50:38;;;;;;;16.05;9.65;;;;;;;21.97;75.53;100272.34;1757159;81;21099;-72
2023/07/06 02:53:07;;;;;;;18.40;9.43;;;;;;;22.01;75.37;100270.11;1757239;82;21048;-70
2023/07/06 02:55:39;;;;;;;14.53;8.80;;;;;;;22.06;75.22;100266.52;1757237;81;21031;-71
2023/07/06 02:58:07;;;;;;;13.20;8.75;;;;;;;22.07;75.10;100259.83;1757240;81;21032;-70
2023/07/06 03:00:36;;;;;;;13.00;9.15;;;;;;;22.10;75.22;100269.04;1757360;82;21060;-71
2023/07/06 03:03:07;;;;;;;12.85;9.30;;;;;;;22.16;75.28;100270.75;1757222;81;21467;-71
2023/07/06 03:05:36;;;;;;;12.58;9.55;;;;;;;22.19;75.34;100260.98;1757349;82;21036;-71
2023/07/06 03:08:05;;;;;;;15.45;9.43;;;;;;;22.21;75.49;100261.55;1757346;82;21052;-72
2023/07/06 03:10:35;;;;;;;15.65;9.78;;;;;;;22.22;75.47;100258.48;1757385;81;21021;-71
2023/07/06 03:13:06;;;;;;;15.35;9.65;;;;;;;22.28;75.20;100262.11;1757342;82;21056;-70
2023/07/06 03:15:36;;;;;;;20.25;10.75;;;;;;;22.32;74.95;100259.88;1757209;82;21072;-70
2023/07/06 03:18:05;;;;;;;14.83;10.15;;;;;;;22.35;74.79;100264.91;1757350;82;20992;-72
2023/07/06 03:20:37;;;;;;;19.00;13.50;;;;;;;22.40;74.73;100266.30;1757131;82;21092;-71
2023/07/06 03:23:06;;;;;;;16.73;10.10;;;;;;;22.45;74.69;100265.46;1757283;82;21067;-70
2023/07/06 03:25:34;;;;;;;14.20;9.23;;;;;;;22.51;74.62;100267.70;1757408;82;21032;-70
2023/07/06 03:28:04;;;;;;;14.30;9.30;;;;;;;22.56;74.72;100265.73;1757328;82;21024;-70
2023/07/06 03:30:33;;;;;;;17.65;9.90;;;;;;;22.60;74.75;100265.45;1757173;82;21468;-71
2023/07/06 03:33:01;;;;;;;16.87;10.08;;;;;;;22.63;74.81;100265.45;1757452;82;21036;-72
2023/07/06 03:35:31;;;;;;;14.25;9.88;;;;;;;22.67;74.77;100257.63;1757309;82;21021;-70
2023/07/06 03:37:59;;;;;;;19.20;9.73;;;;;;;22.70;74.66;100262.64;1757542;81;21080;-70
2023/07/06 03:40:29;;;;;;;16.60;9.73;;;;;;;22.74;74.50;100253.98;1757310;81;21100;-72
2023/07/06 03:42:58;;;;;;;15.45;9.43;;;;;;;22.73;74.29;100248.12;1757404;82;21013;-69
2023/07/06 03:45:30;;;;;;;13.28;8.68;;;;;;;22.80;74.16;100245.62;1729718;82;21530;-71
2023/07/06 03:47:59;;;;;;;13.95;9.20;;;;;;;22.86;73.78;100250.95;1730655;82;21056;-71
2023/07/06 03:50:27;;;;;;;14.40;9.73;;;;;;;22.92;73.53;100248.42;1730025;82;21032;-71
2023/07/06 03:52:57;;;;;;;13.53;9.65;;;;;;;22.98;73.35;100241.70;1757247;82;21032;-72
2023/07/06 03:55:27;;;;;;;15.45;9.88;;;;;;;23.03;73.36;100238.89;1757403;82;21047;-71
2023/07/06 03:58:00;;;;;;;13.80;10.03;;;;;;;23.07;72.68;100227.41;1757219;81;21072;-71
2023/07/06 04:00:29;;;;;;;12.85;9.25;;;;;;;23.11;72.16;100222.66;1756585;82;21036;-71
2023/07/06 04:03:03;;;;;;;11.57;8.48;;;;;;;23.14;72.10;100229.07;1757209;81;21025;-71
2023/07/06 04:05:37;;;;;;;13.62;8.88;;;;;;;23.19;72.42;100229.05;1757334;82;21052;-70
2023/07/06 04:08:10;;;;;;;14.80;9.78;;;;;;;23.24;72.82;100229.03;1730520;82;21012;-72
2023/07/06 04:10:40;;;;;;;14.23;9.10;;;;;;;23.26;73.04;100214.20;1757197;82;21030;-71
2023/07/06 04:13:09;;;;;;;15.55;9.48;;;;;;;23.26;73.01;100209.45;1757186;82;21017;-70
2023/07/06 04:15:42;;;;;;;17.15;10.30;;;;;;;23.28;72.46;100207.77;1757213;82;21040;-71
2023/07/06 04:18:11;;;;;;;15.40;10.23;;;;;;;23.31;72.15;100208.59;1757161;82;21460;-72
2023/07/06 04:20:40;;;;;;;19.82;10.78;;;;;;;23.34;71.75;100199.06;1757401;82;21068;-71
2023/07/06 04:23:12;;;;;;;14.33;9.85;;;;;;;23.38;71.56;100195.13;1757353;82;20993;-73
2023/07/06 04:25:43;;;;;;;13.72;9.23;;;;;;;23.38;71.66;100187.58;1744480;82;21489;-73
2023/07/06 04:28:14;;;;;;;15.43;11.75;;;;;;;23.38;72.02;100188.14;1723524;82;21477;-73
2023/07/06 04:30:46;;;;;;;20.25;11.08;;;;;;;23.34;72.10;100178.09;1743953;82;21839;-72
2023/07/06 04:33:19;;;;;;;14.03;10.55;;;;;;;23.35;72.30;100185.92;1744150;82;20993;-70
2023/07/06 04:35:51;;;;;;;16.35;10.15;;;;;;;23.40;72.16;100177.51;1743976;82;21033;-70
2023/07/06 04:38:22;;;;;;;18.10;9.55;;;;;;;23.50;71.78;100187.27;1743768;82;21465;-70
2023/07/06 04:40:52;;;;;;;12.78;9.00;;;;;;;23.62;71.44;100193.37;1744009;82;21092;-71
2023/07/06 04:43:22;;;;;;;13.60;9.45;;;;;;;23.77;70.81;100191.05;1744275;82;21005;-71
2023/07/06 04:45:50;;;;;;;12.85;9.43;;;;;;;23.87;70.45;100195.73;1743704;82;21041;-72
2023/07/06 04:48:19;;;;;;;19.07;9.63;;;;;;;23.97;70.14;100188.09;1743798;82;21069;-71
2023/07/06 04:50:52;;;;;;;15.10;9.60;;;;;;;24.09;69.78;100191.12;1744157;82;21129;-72
2023/07/06 04:53:21;;;;;;;17.30;9.93;;;;;;;24.18;69.41;100189.36;1743792;82;21053;-70
2023/07/06 04:55:51;;;;;;;15.78;9.48;;;;;;;24.29;69.14;100188.17;1743784;82;21269;-72
2023/07/06 04:58:20;;;;;;;13.15;8.90;;;;;;;24.38;68.80;100180.80;1743760;82;21053;-70
2023/07/06 05:00:50;;;;;;;12.13;8.83;;;;;;;24.48;68.52;100184.08;1743937;82;21077;-72
2023/07/06 05:03:19;;;;;;;16.37;9.30;;;;;;;24.57;68.28;100190.70;1744023;82;21453;-73
2023/07/06 05:05:47;;;;;;;36.50;26.52;;;;;;;24.65;68.01;100192.86;1743882;82;21107;-72
2023/07/06 05:08:21;;;;;;;22.85;11.00;;;;;;;24.75;67.85;100191.38;1744139;82;21093;-72
2023/07/06 05:10:51;;;;;;;20.00;11.05;;;;;;;24.82;67.52;100188.23;1743932;82;21498;-72
2023/07/06 05:13:22;;;;;;;13.83;10.48;;;;;;;24.86;67.22;100181.73;1743973;82;21487;-72
2023/07/06 05:15:51;;;;;;;16.90;10.82;;;;;;;24.93;67.09;100175.77;1744021;82;21061;-71
2023/07/06 05:18:22;;;;;;;19.75;10.30;;;;;;;25.01;67.05;100182.71;1743988;82;21037;-69
2023/07/06 05:20:56;;;;;;;16.70;9.63;;;;;;;25.09;67.00;100189.06;1743925;82;21009;-72
2023/07/06 05:23:28;;;;;;;14.20;8.95;;;;;;;25.19;66.85;100191.17;1744125;82;21036;-71
2023/07/06 05:25:57;;;;;;;20.72;10.60;;;;;;;25.33;66.68;100194.64;1748742;82;21072;-72
2023/07/06 05:28:29;;;;;;;16.55;9.88;;;;;;;25.46;66.40;100195.33;1749057;82;21504;-74
2023/07/06 05:30:57;;;;;;;16.45;9.38;;;;;;;25.55;66.02;100200.54;1749274;82;21021;-72
2023/07/06 05:33:27;;;;;;;15.98;10.13;;;;;;;25.62;65.39;100193.98;1720657;82;21033;-72
2023/07/06 05:35:58;;;;;;;17.62;10.10;;;;;;;25.70;65.23;100189.69;1749132;82;21076;-72
2023/07/06 05:38:27;;;;;;;13.55;9.65;;;;;;;25.78;64.96;100190.41;1749124;82;21025;-73
2023/07/06 05:41:02;;;;;;;17.20;10.70;;;;;;;25.86;64.71;100195.34;1749388;82;21004;-73
2023/07/06 05:43:33;;;;;;;19.17;10.05;;;;;;;25.93;64.44;100195.79;1749389;82;21036;-73
2023/07/06 05:46:02;;;;;;;15.18;9.68;;;;;;;25.99;64.26;100191.77;1749300;82;21025;-73
2023/07/06 05:48:34;;;;;;;21.15;11.63;;;;;;;26.09;64.15;100190.22;1749171;81;21020;-72
2023/07/06 05:51:03;;;;;;;18.05;10.90;;;;;;;26.20;63.78;100193.69;1749461;82;21477;-71
2023/07/06 05:53:32;;;;;;;20.60;10.53;;;;;;;26.35;63.61;100192.05;1749039;82;21033;-73
2023/07/06 05:56:00;;;;;;;17.57;10.55;;;;;;;26.57;62.59;100189.14;1749279;82;21025;-69
2023/07/06 05:58:29;;;;;;;21.02;10.65;;;;;;;26.82;61.86;100184.47;1749336;82;21057;-72
2023/07/06 06:01:02;;;;;;;18.05;10.43;;;;;;;27.11;61.11;100176.59;1749231;82;21496;-73
2023/07/06 06:03:31;;;;;;;17.27;10.70;;;;;;;27.42;60.30;100181.02;1749359;82;21017;-72
2023/07/06 06:06:01;;;;;;;21.55;10.95;;;;;;;27.74;58.89;100182.02;1749300;82;21017;-71
2023/07/06 06:08:30;;;;;;;20.15;11.03;;;;;;;27.98;57.94;100175.55;1749342;82;21063;-71
2023/07/06 06:11:00;;;;;;;17.30;10.23;;;;;;;28.32;56.96;100169.93;1749296;82;21044;-72
2023/07/06 06:13:30;;;;;;;12.98;10.93;;;;;;;28.64;56.17;100171.64;1749374;82;21061;-71
2023/07/06 06:16:00;;;;;;;13.58;9.55;;;;;;;28.88;54.40;100174.94;1749438;81;21017;-73
2023/07/06 06:18:30;;;;;;;12.75;9.35;;;;;;;29.11;53.43;100175.69;1749388;82;21472;-73
2023/07/06 06:20:58;;;;;;;16.70;11.50;;;;;;;29.37;53.30;100184.25;1749272;81;21445;-72
2023/07/06 06:23:27;;;;;;;23.32;12.45;;;;;;;29.66;52.40;100187.33;1749198;82;21097;-73
2023/07/06 06:25:56;;;;;;;14.38;10.58;;;;;;;29.94;51.27;100177.98;1755490;82;21488;-72
2023/07/06 06:28:26;;;;;;;12.13;9.88;;;;;;;30.13;50.52;100179.66;1757274;82;21494;-72
2023/07/06 06:30:55;;;;;;;15.75;10.45;;;;;;;30.31;50.22;100181.30;1757402;82;21036;-74
2023/07/06 06:33:25;;;;;;;13.50;9.15;;;;;;;30.55;49.57;100182.16;1757193;82;21001;-71
2023/07/06 06:35:56;;;;;;;15.15;10.10;;;;;;;30.73;48.70;100191.48;1757389;82;21063;-72
2023/07/06 06:38:25;;;;;;;21.90;11.73;;;;;;;30.84;48.40;100187.13;1757475;82;20993;-72
2023/07/06 06:40:57;;;;;;;14.40;11.65;;;;;;;30.93;48.18;100188.50;1757569;82;21473;-72
2023/07/06 06:43:28;;;;;;;17.90;11.93;;;;;;;31.07;47.75;100188.52;1731719;82;21032;-73
2023/07/06 06:45:57;;;;;;;20.10;12.70;;;;;;;31.17;47.09;100188.17;1757477;82;21516;-73
2023/07/06 06:48:27;;;;;;;15.48;11.48;;;;;;;31.31;47.18;100190.79;1757425;82;21032;-71
2023/07/06 06:50:57;;;;;;;19.52;11.78;;;;;;;31.44;46.56;100193.13;1757343;82;21099;-72
2023/07/06 06:53:26;;;;;;;21.35;10.93;;;;;;;31.50;46.34;100200.25;1757515;82;21036;-71
2023/07/06 06:55:56;;;;;;;17.17;11.08;;;;;;;31.51;46.32;100194.83;1757228;82;21032;-71
2023/07/06 06:58:25;;;;;;;20.25;11.97;;;;;;;31.62;45.76;100196.09;1757173;81;22094;-72
2023/07/06 07:00:58;;;;;;;21.95;11.73;;;;;;;31.69;45.36;100196.37;1730465;82;21048;-73
2023/07/06 07:03:28;;;;;;;35.78;12.45;;;;;;;31.67;44.96;100195.89;1757170;82;21044;-72
2023/07/06 07:06:01;;;;;;;22.80;12.13;;;;;;;31.66;45.27;100194.23;1757291;81;21009;-72
2023/07/06 07:08:31;;;;;;;23.57;11.18;;;;;;;31.73;45.12;100202.21;1757158;82;21468;-73
2023/07/06 07:10:59;;;;;;;20.48;10.58;;;;;;;31.78;44.82;100199.17;1757175;82;21111;-71
2023/07/06 07:13:30;;;;;;;32.80;12.98;;;;;;;31.82;44.97;100199.55;1753508;82;21080;-71
2023/07/06 07:15:59;;;;;;;18.20;11.00;;;;;;;31.96;44.56;100202.73;1757240;82;21456;-72
2023/07/06 07:18:29;;;;;;;14.95;10.28;;;;;;;32.05;44.33;100196.41;1757157;82;21005;-71
2023/07/06 07:20:57;;;;;;;14.68;10.43;;;;;;;32.09;44.36;100198.78;1757155;82;21056;-72
2023/07/06 07:23:26;;;;;;;18.85;10.93;;;;;;;32.05;44.06;100202.07;1730090;82;21060;-73
2023/07/06 07:25:55;;;;;;;18.98;10.85;;;;;;;31.89;44.70;100196.79;1726986;82;21024;-71
2023/07/06 07:28:23;;;;;;;15.43;10.23;;;;;;;31.84;44.40;100195.79;1754189;82;21024;-71
2023/07/06 07:30:59;;;;;;;17.15;10.03;;;;;;;31.90;44.42;100192.19;1754134;82;21056;-73
2023/07/06 07:33:28;;;;;;;16.50;10.65;;;;;;;32.03;43.40;100200.17;1754122;82;21433;-73
2023/07/06 07:36:00;;;;;;;16.62;10.95;;;;;;;32.10;43.52;100200.44;1753978;82;21039;-70
2023/07/06 07:38:29;;;;;;;17.50;10.23;;;;;;;32.14;43.77;100195.73;1753962;82;21611;-72
2023/07/06 07:41:00;;;;;;;14.05;9.93;;;;;;;32.19;43.22;100199.78;1754161;82;21056;-73
2023/07/06 07:43:36;;;;;;;12.63;10.00;;;;;;;32.34;42.68;100201.17;1754035;82;21000;-74
2023/07/06 07:46:06;;;;;;;18.07;11.28;;;;;;;32.35;42.56;100205.08;1754153;81;21036;-71
2023/07/06 07:48:38;;;;;;;13.25;10.43;;;;;;;32.39;42.50;100202.37;1753936;82;21709;-74
2023/07/06 07:51:08;;;;;;;16.02;10.60;;;;;;;32.50;42.59;100208.43;1753961;82;21048;-73
2023/07/06 07:53:39;;;;;;;13.95;10.43;;;;;;;32.66;42.43;100213.71;1754117;82;21020;-72
2023/07/06 07:56:08;;;;;;;13.90;10.08;;;;;;;32.84;42.16;100205.86;1753052;80;21449;-74
2023/07/06 07:58:40;;;;;;;11.45;8.90;;;;;;;32.93;41.65;100210.84;1753670;81;21089;-71
2023/07/06 08:01:10;;;;;;;11.28;8.63;;;;;;;32.92;41.13;100213.45;1769220;80;21086;-71
2023/07/06 08:03:39;;;;;;;18.62;9.03;;;;;;;32.96;40.40;100217.23;1749988;80;21074;-71
2023/07/06 08:06:09;;;;;;;13.60;7.92;;;;;;;32.99;40.47;100213.10;1756872;80;21039;-72
2023/07/06 08:08:38;;;;;;;9.45;8.15;;;;;;;33.10;40.23;100213.47;1754115;82;21059;-71
2023/07/06 08:11:11;;;;;;;12.60;8.88;;;;;;;33.24;39.76;100206.05;1753949;82;21025;-72
2023/07/06 08:13:44;;;;;;;14.50;9.15;;;;;;;33.40;39.53;100205.02;1753254;82;21122;-70
2023/07/06 08:16:13;;;;;;;13.70;8.83;;;;;;;33.52;39.13;100209.86;1725566;82;21062;-71
2023/07/06 08:18:42;;;;;;;10.63;7.87;;;;;;;33.59;39.26;100205.83;1753807;82;21475;-71
2023/07/06 08:21:11;;;;;;;14.73;8.10;;;;;;;33.71;38.63;100207.22;1753967;82;21059;-73
2023/07/06 08:23:48;;;;;;;11.80;7.62;;;;;;;33.91;37.66;100213.16;1749424;82;21232;-73
2023/07/06 08:26:21;;;;;;;12.77;7.73;;;;;;;33.92;37.80;100203.45;1747290;82;21115;-73
2023/07/06 08:28:52;;;;;;;12.70;8.08;;;;;;;33.75;37.48;100206.51;1744033;82;21066;-70
2023/07/06 08:31:24;;;;;;;10.82;7.17;;;;;;;33.52;38.16;100202.75;1743763;82;21805;-70
2023/07/06 08:33:54;;;;;;;8.83;7.40;;;;;;;33.55;37.16;100211.98;1743800;82;21051;-72
2023/07/06 08:36:22;;;;;;;9.55;7.83;;;;;;;33.58;37.24;100209.02;1743899;82;21472;-72
2023/07/06 08:38:54;;;;;;;12.47;7.33;;;;;;;33.49;37.47;100201.22;1743980;82;21089;-69
2023/07/06 08:41:29;;;;;;;9.28;7.90;;;;;;;33.36;37.45;100203.23;1743896;81;21036;-71
2023/07/06 08:43:59;;;;;;;11.93;7.70;;;;;;;33.26;37.52;100199.42;1743490;82;21462;-72
2023/07/06 08:46:35;;;;;;;11.35;8.05;;;;;;;33.20;37.89;100192.33;1743541;82;21051;-71
2023/07/06 08:49:27;;;;;;;14.55;7.60;;;;;;;33.25;38.43;100193.51;1744106;81;21541;-71
2023/07/06 08:52:05;;;;;;;10.90;7.25;;;;;;;33.42;38.32;100198.15;1743512;82;21633;-70
2023/07/06 08:54:36;;;;;;;11.28;7.78;;;;;;;33.60;37.37;100198.12;1743704;81;21873;-71
2023/07/06 08:57:16;;;;;;;10.63;7.42;;;;;;;33.80;37.05;100194.30;1743602;81;21071;-72
2023/07/06 08:59:48;;;;;;;8.48;6.78;;;;;;;33.91;37.07;100192.67;1743702;82;21075;-71
2023/07/06 09:02:27;;;;;;;8.80;7.10;;;;;;;33.93;35.77;100186.63;1733407;82;21048;-70
2023/07/06 09:04:59;;;;;;;9.23;6.50;;;;;;;33.92;34.83;100182.95;1745841;80;22034;-70
2023/07/06 09:07:40;;;;;;;10.00;6.92;;;;;;;33.96;34.69;100187.33;1713330;83;21059;-70
2023/07/06 09:10:20;;;;;;;11.48;7.83;;;;;;;34.07;35.00;100188.47;1713466;84;21552;-71
2023/07/06 09:12:53;;;;;;;9.85;7.53;;;;;;;34.17;35.06;100187.96;1779395;80;20996;-71
2023/07/06 09:15:27;;;;;;;12.75;8.70;;;;;;;34.27;34.45;100183.17;1713518;84;21131;-71
2023/07/06 09:18:03;;;;;;;9.30;8.10;;;;;;;34.33;35.18;100188.04;1713231;84;21793;-70
2023/07/06 09:20:35;;;;;;;10.88;7.40;;;;;;;34.36;35.42;100188.73;1779729;80;21463;-71
2023/07/06 09:23:05;;;;;;;11.95;7.20;;;;;;;34.22;35.45;100180.59;1713342;84;21003;-72
2023/07/06 09:25:36;;;;;;;8.68;5.62;;;;;;;34.18;34.89;100180.25;1713109;83;21031;-72
2023/07/06 09:28:07;;;;;;;9.25;6.37;;;;;;;34.13;33.76;100183.36;1713332;84;21016;-71
2023/07/06 09:30:38;;;;;;;8.35;6.00;;;;;;;34.05;32.67;100182.32;1685748;84;21087;-72
2023/07/06 09:33:20;;;;;;;7.30;5.87;;;;;;;33.99;32.83;100176.06;1779740;80;21513;-70
2023/07/06 09:35:52;;;;;;;10.60;6.28;;;;;;;33.97;32.70;100176.19;1713345;83;21039;-71
2023/07/06 09:38:26;;;;;;;9.55;7.78;;;;;;;33.78;32.91;100172.51;1779824;80;21067;-71
2023/07/06 09:40:55;;;;;;;8.38;5.67;;;;;;;33.68;33.57;100176.67;1713184;84;21503;-71
2023/07/06 09:43:29;;;;;;;7.70;6.10;;;;;;;33.63;33.12;100178.34;1779799;80;21027;-70
2023/07/06 09:45:59;;;;;;;9.23;5.83;;;;;;;33.52;33.20;100180.02;1713350;84;21008;-70
2023/07/06 09:48:36;;;;;;;7.45;5.95;;;;;;;33.44;33.42;100178.14;1686106;84;21102;-70
2023/07/06 09:51:23;;;;;;;10.48;6.72;;;;;;;33.39;34.11;100176.96;1713575;84;21091;-71
2023/07/06 09:54:01;;;;;;;9.83;5.83;;;;;;;33.33;34.38;100174.95;1713536;83;21071;-72
2023/07/06 09:56:31;;;;;;;10.98;6.67;;;;;;;33.33;34.39;100172.12;1779902;80;21047;-72
2023/07/06 09:59:00;;;;;;;10.75;6.53;;;;;;;33.32;34.18;100176.73;1685621;84;21031;-71
2023/07/06 10:01:39;;;;;;;8.23;5.78;;;;;;;33.35;34.60;100181.70;1713506;83;21032;-71
2023/07/06 10:04:45;;;;;;;7.53;6.75;;;;;;;33.37;33.71;100174.48;1775624;80;21066;-70
2023/07/06 10:07:23;;;;;;;7.80;5.65;;;;;;;33.31;33.25;100177.91;1757405;82;21031;-72
2023/07/06 10:10:20;;;;;;;9.68;5.17;;;;;;;33.17;32.97;100176.00;1757162;82;21474;-72
2023/07/06 10:13:08;;;;;;;;;;;;;;;33.08;33.41;100168.98;1759976;81;20991;-71
2023/07/06 10:15:53;;;;;;;7.65;5.33;;;;;;;33.01;33.90;100164.48;1756511;82;20217;-72
2023/07/06 10:18:26;;;;;;;7.97;6.20;;;;;;;32.97;34.82;100172.88;1695029;85;21059;-71
2023/07/06 10:21:05;;;;;;;8.70;5.70;;;;;;;32.97;34.96;100168.63;1694984;85;21120;-71
2023/07/06 10:24:00;;;;;;;8.43;6.10;;;;;;;32.97;35.09;100156.44;1757550;82;21082;-71
2023/07/06 10:26:33;;;;;;;7.58;5.42;;;;;;;33.12;34.96;100161.41;1748541;81;21463;-71
2023/07/06 10:29:05;;;;;;;7.53;6.08;;;;;;;33.30;34.68;100161.47;1712103;82;21769;-72
2023/07/06 10:31:45;;;;;;;10.32;4.95;;;;;;;33.41;34.53;100157.55;1740240;82;21439;-68
2023/07/06 10:34:21;;;;;;;9.45;5.30;;;;;;;33.52;33.72;100153.03;1740193;82;21024;-71
2023/07/06 10:36:51;;;;;;;6.85;5.30;;;;;;;33.58;33.77;100155.86;1738476;82;21040;-71
2023/07/06 10:39:32;;;;;;;8.03;5.45;;;;;;;33.63;33.56;100154.78;1666695;86;21122;-72
2023/07/06 10:42:04;;;;;;;9.78;5.05;;;;;;;33.60;33.60;100153.48;1740183;82;21071;-72
2023/07/06 10:44:44;;;;;;;9.88;5.72;;;;;;;33.50;33.41;100152.56;1740286;82;21159;-70
2023/07/06 10:47:44;;;;;;;10.13;5.30;;;;;;;33.43;33.83;100150.09;1739993;82;21047;-72
2023/07/06 10:50:23;;;;;;;5.67;4.87;;;;;;;33.39;33.90;100149.98;1740314;82;21063;-72
2023/07/06 10:53:23;;;;;;;6.62;4.90;;;;;;;33.36;33.31;100147.26;1740353;82;21011;-71
2023/07/06 10:56:04;;;;;;;;;;;;;;;33.32;33.26;100145.48;1742524;82;21020;-72
2023/07/06 10:58:36;;;;;;;7.40;4.90;;;;;;;33.24;33.24;100146.41;1740036;82;20190;-71
2023/07/06 11:01:08;;;;;;;7.85;4.50;;;;;;;33.18;33.26;100143.58;1666839;85;21471;-71
2023/07/06 11:03:38;;;;;;;13.15;5.90;;;;;;;33.18;33.35;100140.73;1740021;82;21106;-72
2023/07/06 11:06:16;;;;;;;7.42;6.05;;;;;;;33.18;33.64;100145.00;1657459;86;21512;-70
2023/07/06 11:09:08;;;;;;;5.47;4.97;;;;;;;33.19;33.98;100141.80;1715327;83;21666;-71
2023/07/06 11:12:03;;;;;;;8.63;5.70;;;;;;;33.19;34.42;100135.30;1719271;83;21034;-72
2023/07/06 11:14:39;;;;;;;6.58;5.20;;;;;;;33.16;34.49;100137.39;1719225;83;21033;-73
2023/07/06 11:17:33;;;;;;;6.78;4.80;;;;;;;33.15;34.05;100131.48;1719415;83;21069;-71
2023/07/06 11:20:12;;;;;;;9.40;5.08;;;;;;;33.09;33.51;100127.45;1719117;83;21094;-71
2023/07/06 11:22:41;;;;;;;7.90;5.50;;;;;;;33.06;33.86;100132.42;1719349;83;21042;-70
2023/07/06 11:25:11;;;;;;;8.58;5.33;;;;;;;33.07;34.52;100126.16;1670847;83;21036;-70
2023/07/06 11:27:45;;;;;;;9.68;5.95;;;;;;;33.00;34.46;100123.91;1741291;80;21066;-71
2023/07/06 11:30:22;;;;;;;7.53;5.50;;;;;;;32.96;34.23;100121.55;1769450;81;21052;-71
2023/07/06 11:33:18;;;;;;;7.15;5.00;;;;;;;32.90;33.65;100108.77;1769486;81;21460;-71
2023/07/06 11:36:07;;;;;;;5.73;4.90;;;;;;;32.85;33.71;100110.42;1769442;81;21063;-71
2023/07/06 11:39:00;;;;;;;7.47;4.78;;;;;;;32.90;33.40;100114.45;1762864;81;21028;-72
2023/07/06 11:41:49;;;;;;;6.42;5.03;;;;;;;32.92;33.17;100112.08;1769407;81;21122;-69
2023/07/06 11:44:54;;;;;;;10.08;5.35;;;;;;;32.89;33.29;100097.19;1769500;81;21515;-71